sensor_id;sensor_type;location;lat;lon;timestamp;temperature;humidity
23267;DHT22;11802;53.160;8.214;2022-09-09T00:02:19;13.70;99.90
23267;DHT22;11802;53.160;8.214;2022-09-09T00:05:00;13.60;99.90
23267;DHT22;11802;53.160;8.214;2022-09-09T00:10:32;13.60;99.90
23267;DHT22;11802;53.160;8.214;2022-09-09T00:18:19;13.50;99.90
23267;DHT22;11802;53.160;8.214;2022-09-09T00:21:05;13.50;99.90
23267;DHT22;11802;53.160;8.214;2022-09-09T00:23:52;13.50;99.90
23267;DHT22;11802;53.160;8.214;2022-09-09T00:29:05;13.40;99.90
23267;DHT22;11802;53.160;8.214;2022-09-09T00:31:34;13.40;99.90
23267;DHT22;11802;53.160;8.214;2022-09-09T00:34:15;13.40;99.90
23267;DHT22;11802;53.160;8.214;2022-09-09T00:36:43;13.40;99.90
23267;DHT22;11802;53.160;8.214;2022-09-09T00:39:35;13.40;99.90
23267;DHT22;11802;53.160;8.214;2022-09-09T00:44:31;13.40;99.90
23267;DHT22;11802;53.160;8.214;2022-09-09T00:55:50;13.50;99.90
23267;DHT22;11802;53.160;8.214;2022-09-09T00:58:19;13.60;99.90
23267;DHT22;11802;53.160;8.214;2022-09-09T01:00:52;13.50;99.90
23267;DHT22;11802;53.160;8.214;2022-09-09T01:03:36;13.50;99.90
23267;DHT22;11802;53.160;8.214;2022-09-09T01:11:57;13.40;99.90
23267;DHT22;11802;53.160;8.214;2022-09-09T01:17:23;13.40;99.90
23267;DHT22;11802;53.160;8.214;2022-09-09T01:23:19;13.50;99.90
23267;DHT22;11802;53.160;8.214;2022-09-09T01:28:46;13.50;99.90
23267;DHT22;11802;53.160;8.214;2022-09-09T01:31:17;13.40;99.90
23267;DHT22;11802;53.160;8.214;2022-09-09T01:33:43;13.40;99.90
23267;DHT22;11802;53.160;8.214;2022-09-09T01:36:11;13.30;99.90
23267;DHT22;11802;53.160;8.214;2022-09-09T01:38:41;13.30;99.90
23267;DHT22;11802;53.160;8.214;2022-09-09T01:41:10;13.30;99.90
23267;DHT22;11802;53.160;8.214;2022-09-09T01:43:35;13.30;99.90
23267;DHT22;11802;53.160;8.214;2022-09-09T01:46:08;13.30;99.90
23267;DHT22;11802;53.160;8.214;2022-09-09T01:48:34;13.30;99.90
23267;DHT22;11802;53.160;8.214;2022-09-09T01:51:00;13.30;99.90
23267;DHT22;11802;53.160;8.214;2022-09-09T01:53:25;13.30;99.90
23267;DHT22;11802;53.160;8.214;2022-09-09T01:59:03;13.30;99.90
23267;DHT22;11802;53.160;8.214;2022-09-09T02:01:43;13.30;99.90
23267;DHT22;11802;53.160;8.214;2022-09-09T02:06:55;13.30;99.90
23267;DHT22;11802;53.160;8.214;2022-09-09T02:09:23;13.30;99.90
23267;DHT22;11802;53.160;8.214;2022-09-09T02:11:55;13.30;99.90
23267;DHT22;11802;53.160;8.214;2022-09-09T02:14:28;13.30;99.90
23267;DHT22;11802;53.160;8.214;2022-09-09T02:17:03;13.40;99.90
23267;DHT22;11802;53.160;8.214;2022-09-09T02:19:54;13.30;99.90
23267;DHT22;11802;53.160;8.214;2022-09-09T02:22:23;13.30;99.90
23267;DHT22;11802;53.160;8.214;2022-09-09T02:24:51;13.30;99.90
23267;DHT22;11802;53.160;8.214;2022-09-09T02:27:20;13.40;99.90
23267;DHT22;11802;53.160;8.214;2022-09-09T02:29:48;13.30;99.90
23267;DHT22;11802;53.160;8.214;2022-09-09T02:32:17;13.30;99.90
23267;DHT22;11802;53.160;8.214;2022-09-09T02:34:49;13.30;99.90
23267;DHT22;11802;53.160;8.214;2022-09-09T02:37:20;13.30;99.90
23267;DHT22;11802;53.160;8.214;2022-09-09T02:39:47;13.30;99.90
23267;DHT22;11802;53.160;8.214;2022-09-09T02:42:13;13.30;99.90
23267;DHT22;11802;53.160;8.214;2022-09-09T02:44:40;13.30;99.90
23267;DHT22;11802;53.160;8.214;2022-09-09T02:52:54;13.30;99.90
23267;DHT22;11802;53.160;8.214;2022-09-09T02:55:46;13.30;99.90
23267;DHT22;11802;53.160;8.214;2022-09-09T02:58:14;13.30;99.90
23267;DHT22;11802;53.160;8.214;2022-09-09T03:00:44;13.40;99.90
23267;DHT22;11802;53.160;8.214;2022-09-09T03:03:10;13.40;99.90
23267;DHT22;11802;53.160;8.214;2022-09-09T03:05:36;13.40;99.90
23267;DHT22;11802;53.160;8.214;2022-09-09T03:08:03;13.40;99.90
23267;DHT22;11802;53.160;8.214;2022-09-09T03:10:31;13.40;99.90
23267;DHT22;11802;53.160;8.214;2022-09-09T03:12:56;13.40;99.90
23267;DHT22;11802;53.160;8.214;2022-09-09T03:15:22;13.50;99.90
23267;DHT22;11802;53.160;8.214;2022-09-09T03:17:47;13.50;99.90
23267;DHT22;11802;53.160;8.214;2022-09-09T03:20:13;13.50;99.90
23267;DHT22;11802;53.160;8.214;2022-09-09T03:22:39;13.40;99.90
23267;DHT22;11802;53.160;8.214;2022-09-09T03:25:05;13.50;99.90
23267;DHT22;11802;53.160;8.214;2022-09-09T03:27:31;13.50;99.90
23267;DHT22;11802;53.160;8.214;2022-09-09T03:29:57;13.60;99.90
23267;DHT22;11802;53.160;8.214;2022-09-09T03:32:23;13.60;99.90
23267;DHT22;11802;53.160;8.214;2022-09-09T03:34:51;13.60;99.90
23267;DHT22;11802;53.160;8.214;2022-09-09T03:37:17;13.60;99.90
23267;DHT22;11802;53.160;8.214;2022-09-09T03:39:43;13.50;99.90
23267;DHT22;11802;53.160;8.214;2022-09-09T03:42:09;13.60;99.90
23267;DHT22;11802;53.160;8.214;2022-09-09T03:44:34;13.50;99.90
23267;DHT22;11802;53.160;8.214;2022-09-09T03:47:00;13.50;99.90
23267;DHT22;11802;53.160;8.214;2022-09-09T03:49:26;13.50;99.90
23267;DHT22;11802;53.160;8.214;2022-09-09T03:51:54;13.40;99.90
23267;DHT22;11802;53.160;8.214;2022-09-09T03:54:20;13.40;99.90
23267;DHT22;11802;53.160;8.214;2022-09-09T03:56:45;13.40;99.90
23267;DHT22;11802;53.160;8.214;2022-09-09T03:59:11;13.30;99.90
23267;DHT22;11802;53.160;8.214;2022-09-09T04:01:36;13.30;99.90
23267;DHT22;11802;53.160;8.214;2022-09-09T04:04:02;13.30;99.90
23267;DHT22;11802;53.160;8.214;2022-09-09T04:06:28;13.30;99.90
23267;DHT22;11802;53.160;8.214;2022-09-09T04:08:54;13.30;99.90
23267;DHT22;11802;53.160;8.214;2022-09-09T04:11:20;13.30;99.90
23267;DHT22;11802;53.160;8.214;2022-09-09T04:13:46;13.40;99.90
23267;DHT22;11802;53.160;8.214;2022-09-09T04:16:12;13.40;99.90
23267;DHT22;11802;53.160;8.214;2022-09-09T04:18:41;13.40;99.90
23267;DHT22;11802;53.160;8.214;2022-09-09T04:21:09;13.40;99.90
23267;DHT22;11802;53.160;8.214;2022-09-09T04:23:35;13.40;99.90
23267;DHT22;11802;53.160;8.214;2022-09-09T04:26:02;13.30;99.90
23267;DHT22;11802;53.160;8.214;2022-09-09T04:28:30;13.40;99.90
23267;DHT22;11802;53.160;8.214;2022-09-09T04:30:56;13.30;99.90
23267;DHT22;11802;53.160;8.214;2022-09-09T04:33:24;13.30;99.90
23267;DHT22;11802;53.160;8.214;2022-09-09T04:35:52;13.20;99.90
23267;DHT22;11802;53.160;8.214;2022-09-09T04:38:19;13.20;99.90
23267;DHT22;11802;53.160;8.214;2022-09-09T04:40:50;13.20;99.90
23267;DHT22;11802;53.160;8.214;2022-09-09T04:43:17;13.20;99.90
23267;DHT22;11802;53.160;8.214;2022-09-09T04:45:47;13.10;99.90
23267;DHT22;11802;53.160;8.214;2022-09-09T04:48:13;13.10;99.90
23267;DHT22;11802;53.160;8.214;2022-09-09T04:50:39;13.10;99.90
23267;DHT22;11802;53.160;8.214;2022-09-09T04:53:06;13.00;99.90
23267;DHT22;11802;53.160;8.214;2022-09-09T04:55:32;13.00;99.90
23267;DHT22;11802;53.160;8.214;2022-09-09T04:58:06;13.00;99.90
23267;DHT22;11802;53.160;8.214;2022-09-09T05:00:33;13.00;99.90
23267;DHT22;11802;53.160;8.214;2022-09-09T05:03:02;12.90;99.90
23267;DHT22;11802;53.160;8.214;2022-09-09T05:05:28;12.90;99.90
23267;DHT22;11802;53.160;8.214;2022-09-09T05:07:53;12.90;99.90
23267;DHT22;11802;53.160;8.214;2022-09-09T05:10:19;12.90;99.90
23267;DHT22;11802;53.160;8.214;2022-09-09T05:12:52;12.90;99.90
23267;DHT22;11802;53.160;8.214;2022-09-09T05:15:18;12.90;99.90
23267;DHT22;11802;53.160;8.214;2022-09-09T05:17:46;12.90;99.90
23267;DHT22;11802;53.160;8.214;2022-09-09T05:20:11;12.90;99.90
23267;DHT22;11802;53.160;8.214;2022-09-09T05:22:37;13.00;99.90
23267;DHT22;11802;53.160;8.214;2022-09-09T05:25:03;13.00;99.90
23267;DHT22;11802;53.160;8.214;2022-09-09T05:27:29;13.10;99.90
23267;DHT22;11802;53.160;8.214;2022-09-09T05:29:57;13.20;99.90
23267;DHT22;11802;53.160;8.214;2022-09-09T05:32:23;13.30;99.90
23267;DHT22;11802;53.160;8.214;2022-09-09T05:34:49;13.40;99.90
23267;DHT22;11802;53.160;8.214;2022-09-09T05:37:15;13.50;99.90
23267;DHT22;11802;53.160;8.214;2022-09-09T05:39:41;13.50;99.90
23267;DHT22;11802;53.160;8.214;2022-09-09T05:42:07;13.60;99.90
23267;DHT22;11802;53.160;8.214;2022-09-09T05:44:33;13.70;99.90
23267;DHT22;11802;53.160;8.214;2022-09-09T05:46:58;13.70;99.90
23267;DHT22;11802;53.160;8.214;2022-09-09T05:49:24;13.80;99.90
23267;DHT22;11802;53.160;8.214;2022-09-09T05:51:50;13.90;99.90
23267;DHT22;11802;53.160;8.214;2022-09-09T05:54:16;14.10;99.90
23267;DHT22;11802;53.160;8.214;2022-09-09T05:56:42;14.20;99.90
23267;DHT22;11802;53.160;8.214;2022-09-09T05:59:08;14.60;99.90
23267;DHT22;11802;53.160;8.214;2022-09-09T06:01:36;14.90;99.90
23267;DHT22;11802;53.160;8.214;2022-09-09T06:04:05;15.00;99.90
23267;DHT22;11802;53.160;8.214;2022-09-09T06:06:36;15.20;99.90
23267;DHT22;11802;53.160;8.214;2022-09-09T06:09:03;15.30;99.90
23267;DHT22;11802;53.160;8.214;2022-09-09T06:11:32;15.50;99.90
23267;DHT22;11802;53.160;8.214;2022-09-09T06:13:59;15.50;99.90
23267;DHT22;11802;53.160;8.214;2022-09-09T06:16:27;15.60;99.90
23267;DHT22;11802;53.160;8.214;2022-09-09T06:18:54;15.80;99.90
23267;DHT22;11802;53.160;8.214;2022-09-09T06:21:31;16.00;99.90
23267;DHT22;11802;53.160;8.214;2022-09-09T06:23:58;16.10;99.90
23267;DHT22;11802;53.160;8.214;2022-09-09T06:26:26;16.50;99.90
23267;DHT22;11802;53.160;8.214;2022-09-09T06:28:54;17.00;99.90
23267;DHT22;11802;53.160;8.214;2022-09-09T06:31:21;18.30;99.90
23267;DHT22;11802;53.160;8.214;2022-09-09T06:33:49;19.50;99.90
23267;DHT22;11802;53.160;8.214;2022-09-09T06:36:17;19.70;99.90
23267;DHT22;11802;53.160;8.214;2022-09-09T06:38:44;19.60;99.90
23267;DHT22;11802;53.160;8.214;2022-09-09T06:41:11;19.10;99.90
23267;DHT22;11802;53.160;8.214;2022-09-09T06:43:38;19.10;99.90
23267;DHT22;11802;53.160;8.214;2022-09-09T06:46:11;18.70;99.90
23267;DHT22;11802;53.160;8.214;2022-09-09T06:48:39;18.50;99.90
23267;DHT22;11802;53.160;8.214;2022-09-09T06:51:15;18.30;99.90
23267;DHT22;11802;53.160;8.214;2022-09-09T06:53:42;18.70;99.90
23267;DHT22;11802;53.160;8.214;2022-09-09T06:56:24;17.70;99.90
23267;DHT22;11802;53.160;8.214;2022-09-09T06:58:51;17.60;99.90
23267;DHT22;11802;53.160;8.214;2022-09-09T07:01:19;17.60;99.90
23267;DHT22;11802;53.160;8.214;2022-09-09T07:03:48;17.70;99.90
23267;DHT22;11802;53.160;8.214;2022-09-09T07:06:25;17.90;99.90
23267;DHT22;11802;53.160;8.214;2022-09-09T07:08:52;18.00;99.90
23267;DHT22;11802;53.160;8.214;2022-09-09T07:11:19;18.30;99.90
23267;DHT22;11802;53.160;8.214;2022-09-09T07:13:46;19.20;99.90
23267;DHT22;11802;53.160;8.214;2022-09-09T07:16:13;20.30;99.90
23267;DHT22;11802;53.160;8.214;2022-09-09T07:18:40;22.20;99.90
23267;DHT22;11802;53.160;8.214;2022-09-09T07:21:06;24.20;99.90
23267;DHT22;11802;53.160;8.214;2022-09-09T07:23:32;25.60;99.90
23267;DHT22;11802;53.160;8.214;2022-09-09T07:26:06;26.80;99.90
23267;DHT22;11802;53.160;8.214;2022-09-09T07:28:36;26.60;99.90
23267;DHT22;11802;53.160;8.214;2022-09-09T07:31:03;26.70;99.90
23267;DHT22;11802;53.160;8.214;2022-09-09T07:33:40;26.60;99.90
23267;DHT22;11802;53.160;8.214;2022-09-09T07:36:08;27.30;99.90
23267;DHT22;11802;53.160;8.214;2022-09-09T07:38:40;27.40;99.90
23267;DHT22;11802;53.160;8.214;2022-09-09T07:41:08;27.20;99.90
23267;DHT22;11802;53.160;8.214;2022-09-09T07:43:38;27.10;99.90
23267;DHT22;11802;53.160;8.214;2022-09-09T07:46:04;27.00;99.90
23267;DHT22;11802;53.160;8.214;2022-09-09T07:48:30;27.70;99.90
23267;DHT22;11802;53.160;8.214;2022-09-09T07:51:06;27.50;99.90
23267;DHT22;11802;53.160;8.214;2022-09-09T07:53:32;27.40;99.90
23267;DHT22;11802;53.160;8.214;2022-09-09T07:56:06;28.70;99.90
23267;DHT22;11802;53.160;8.214;2022-09-09T07:58:33;28.70;99.90
23267;DHT22;11802;53.160;8.214;2022-09-09T08:00:59;29.40;99.90
23267;DHT22;11802;53.160;8.214;2022-09-09T08:03:24;29.60;99.90
23267;DHT22;11802;53.160;8.214;2022-09-09T08:05:50;29.80;99.90
23267;DHT22;11802;53.160;8.214;2022-09-09T08:08:16;28.90;99.90
23267;DHT22;11802;53.160;8.214;2022-09-09T08:10:42;28.40;99.90
23267;DHT22;11802;53.160;8.214;2022-09-09T08:13:08;28.30;99.90
23267;DHT22;11802;53.160;8.214;2022-09-09T08:15:34;28.70;99.90
23267;DHT22;11802;53.160;8.214;2022-09-09T08:18:00;28.30;99.90
23267;DHT22;11802;53.160;8.214;2022-09-09T08:20:25;27.80;99.90
23267;DHT22;11802;53.160;8.214;2022-09-09T08:22:51;27.70;99.90
23267;DHT22;11802;53.160;8.214;2022-09-09T08:25:16;27.60;99.90
23267;DHT22;11802;53.160;8.214;2022-09-09T08:27:42;27.70;99.90
23267;DHT22;11802;53.160;8.214;2022-09-09T08:30:08;28.40;99.90
23267;DHT22;11802;53.160;8.214;2022-09-09T08:32:33;28.50;99.90
23267;DHT22;11802;53.160;8.214;2022-09-09T08:35:00;28.70;99.90
23267;DHT22;11802;53.160;8.214;2022-09-09T08:37:26;29.30;99.90
23267;DHT22;11802;53.160;8.214;2022-09-09T08:39:51;30.00;99.90
23267;DHT22;11802;53.160;8.214;2022-09-09T08:43:01;28.80;99.90
23267;DHT22;11802;53.160;8.214;2022-09-09T08:45:33;28.40;99.90
23267;DHT22;11802;53.160;8.214;2022-09-09T08:50:49;26.70;99.90
23267;DHT22;11802;53.160;8.214;2022-09-09T08:53:21;26.90;99.90
23267;DHT22;11802;53.160;8.214;2022-09-09T08:55:56;27.50;99.90
23267;DHT22;11802;53.160;8.214;2022-09-09T08:58:29;26.50;99.90
23267;DHT22;11802;53.160;8.214;2022-09-09T09:03:50;27.80;99.90
23267;DHT22;11802;53.160;8.214;2022-09-09T09:12:20;27.80;99.90
23267;DHT22;11802;53.160;8.214;2022-09-09T09:14:48;26.30;99.90
23267;DHT22;11802;53.160;8.214;2022-09-09T09:17:17;26.80;99.90
23267;DHT22;11802;53.160;8.214;2022-09-09T09:19:44;26.80;99.90
23267;DHT22;11802;53.160;8.214;2022-09-09T09:22:22;26.60;99.90
23267;DHT22;11802;53.160;8.214;2022-09-09T09:27:47;25.70;99.90
23267;DHT22;11802;53.160;8.214;2022-09-09T09:30:18;25.40;99.90
23267;DHT22;11802;53.160;8.214;2022-09-09T09:32:57;25.40;99.90
23267;DHT22;11802;53.160;8.214;2022-09-09T09:35:24;25.00;99.90
23267;DHT22;11802;53.160;8.214;2022-09-09T09:37:50;25.80;99.90
23267;DHT22;11802;53.160;8.214;2022-09-09T09:40:19;25.60;99.90
23267;DHT22;11802;53.160;8.214;2022-09-09T09:42:59;26.30;99.90
23267;DHT22;11802;53.160;8.214;2022-09-09T09:45:43;26.20;99.90
23267;DHT22;11802;53.160;8.214;2022-09-09T09:48:11;26.70;99.90
23267;DHT22;11802;53.160;8.214;2022-09-09T09:50:56;26.60;99.90
23267;DHT22;11802;53.160;8.214;2022-09-09T09:53:26;27.50;99.90
23267;DHT22;11802;53.160;8.214;2022-09-09T09:56:11;27.70;99.90
23267;DHT22;11802;53.160;8.214;2022-09-09T10:01:03;27.50;99.90
23267;DHT22;11802;53.160;8.214;2022-09-09T10:03:31;27.80;99.90
23267;DHT22;11802;53.160;8.214;2022-09-09T10:05:58;28.10;99.90
23267;DHT22;11802;53.160;8.214;2022-09-09T10:08:25;27.50;99.90
23267;DHT22;11802;53.160;8.214;2022-09-09T10:19:09;27.70;99.90
23267;DHT22;11802;53.160;8.214;2022-09-09T10:24:22;28.10;99.90
23267;DHT22;11802;53.160;8.214;2022-09-09T10:26:59;28.40;99.90
23267;DHT22;11802;53.160;8.214;2022-09-09T10:35:04;27.40;99.90
23267;DHT22;11802;53.160;8.214;2022-09-09T10:40:33;26.10;99.90
23267;DHT22;11802;53.160;8.214;2022-09-09T10:57:11;25.40;99.90
23267;DHT22;11802;53.160;8.214;2022-09-09T10:59:46;25.80;99.90
23267;DHT22;11802;53.160;8.214;2022-09-09T11:02:19;25.50;99.90
23267;DHT22;11802;53.160;8.214;2022-09-09T11:05:00;25.10;99.90
23267;DHT22;11802;53.160;8.214;2022-09-09T11:07:49;25.40;99.90
23267;DHT22;11802;53.160;8.214;2022-09-09T11:13:11;25.60;99.90
23267;DHT22;11802;53.160;8.214;2022-09-09T11:15:49;26.10;99.90
23267;DHT22;11802;53.160;8.214;2022-09-09T11:18:21;26.30;99.90
23267;DHT22;11802;53.160;8.214;2022-09-09T11:20:51;26.20;99.90
23267;DHT22;11802;53.160;8.214;2022-09-09T11:23:28;26.10;99.90
23267;DHT22;11802;53.160;8.214;2022-09-09T11:26:01;26.40;99.90
23267;DHT22;11802;53.160;8.214;2022-09-09T11:44:37;28.00;99.90
23267;DHT22;11802;53.160;8.214;2022-09-09T11:47:03;27.70;99.90
23267;DHT22;11802;53.160;8.214;2022-09-09T11:54:55;26.20;99.90
23267;DHT22;11802;53.160;8.214;2022-09-09T11:57:30;25.60;99.90
23267;DHT22;11802;53.160;8.214;2022-09-09T11:59:57;25.10;99.90
23267;DHT22;11802;53.160;8.214;2022-09-09T12:02:25;24.70;99.90
23267;DHT22;11802;53.160;8.214;2022-09-09T12:05:02;24.10;99.90
23267;DHT22;11802;53.160;8.214;2022-09-09T12:12:46;23.80;99.90
23267;DHT22;11802;53.160;8.214;2022-09-09T12:17:43;24.10;99.90
23267;DHT22;11802;53.160;8.214;2022-09-09T12:20:19;24.00;99.90
23267;DHT22;11802;53.160;8.214;2022-09-09T12:23:15;24.10;99.90
23267;DHT22;11802;53.160;8.214;2022-09-09T12:26:07;24.00;99.90
23267;DHT22;11802;53.160;8.214;2022-09-09T12:34:02;23.50;99.90
23267;DHT22;11802;53.160;8.214;2022-09-09T12:36:30;23.30;99.90
23267;DHT22;11802;53.160;8.214;2022-09-09T12:39:09;23.30;99.90
23267;DHT22;11802;53.160;8.214;2022-09-09T12:41:38;23.30;99.90
23267;DHT22;11802;53.160;8.214;2022-09-09T12:44:13;23.30;99.90
23267;DHT22;11802;53.160;8.214;2022-09-09T12:46:41;23.40;99.90
23267;DHT22;11802;53.160;8.214;2022-09-09T12:49:39;23.30;99.90
23267;DHT22;11802;53.160;8.214;2022-09-09T12:52:23;23.40;99.90
23267;DHT22;11802;53.160;8.214;2022-09-09T12:55:04;23.30;99.90
23267;DHT22;11802;53.160;8.214;2022-09-09T12:57:36;23.00;99.90
23267;DHT22;11802;53.160;8.214;2022-09-09T13:00:23;22.90;99.90
23267;DHT22;11802;53.160;8.214;2022-09-09T13:02:52;22.80;99.90
23267;DHT22;11802;53.160;8.214;2022-09-09T13:05:25;22.80;99.90
23267;DHT22;11802;53.160;8.214;2022-09-09T13:08:00;22.80;99.90
23267;DHT22;11802;53.160;8.214;2022-09-09T13:10:30;22.60;99.90
23267;DHT22;11802;53.160;8.214;2022-09-09T13:12:59;22.50;99.90
23267;DHT22;11802;53.160;8.214;2022-09-09T13:15:27;22.30;99.90
23267;DHT22;11802;53.160;8.214;2022-09-09T13:18:03;22.30;99.90
23267;DHT22;11802;53.160;8.214;2022-09-09T13:20:30;22.30;99.90
23267;DHT22;11802;53.160;8.214;2022-09-09T13:22:56;22.10;99.90
23267;DHT22;11802;53.160;8.214;2022-09-09T13:25:29;22.00;99.90
23267;DHT22;11802;53.160;8.214;2022-09-09T13:28:05;21.90;99.90
23267;DHT22;11802;53.160;8.214;2022-09-09T13:30:37;21.90;99.90
23267;DHT22;11802;53.160;8.214;2022-09-09T13:33:21;21.70;99.90
23267;DHT22;11802;53.160;8.214;2022-09-09T13:35:57;21.50;99.90
23267;DHT22;11802;53.160;8.214;2022-09-09T13:38:25;21.50;99.90
23267;DHT22;11802;53.160;8.214;2022-09-09T13:41:00;21.40;99.90
23267;DHT22;11802;53.160;8.214;2022-09-09T13:43:31;21.10;99.90
23267;DHT22;11802;53.160;8.214;2022-09-09T13:46:01;20.90;99.90
23267;DHT22;11802;53.160;8.214;2022-09-09T13:48:28;20.90;99.90
23267;DHT22;11802;53.160;8.214;2022-09-09T13:51:03;20.90;99.90
23267;DHT22;11802;53.160;8.214;2022-09-09T13:53:31;20.80;99.90
23267;DHT22;11802;53.160;8.214;2022-09-09T13:56:03;20.70;99.90
23267;DHT22;11802;53.160;8.214;2022-09-09T13:58:50;20.70;99.90
23267;DHT22;11802;53.160;8.214;2022-09-09T14:01:16;20.60;99.90
23267;DHT22;11802;53.160;8.214;2022-09-09T14:03:41;20.70;99.90
23267;DHT22;11802;53.160;8.214;2022-09-09T14:06:09;20.60;99.90
23267;DHT22;11802;53.160;8.214;2022-09-09T14:08:34;20.80;99.90
23267;DHT22;11802;53.160;8.214;2022-09-09T14:11:03;20.70;99.90
23267;DHT22;11802;53.160;8.214;2022-09-09T14:13:29;20.60;99.90
23267;DHT22;11802;53.160;8.214;2022-09-09T14:15:54;20.40;99.90
23267;DHT22;11802;53.160;8.214;2022-09-09T14:18:20;20.50;99.90
23267;DHT22;11802;53.160;8.214;2022-09-09T14:20:47;20.50;99.90
23267;DHT22;11802;53.160;8.214;2022-09-09T14:23:13;20.40;99.90
23267;DHT22;11802;53.160;8.214;2022-09-09T14:25:41;20.30;99.90
23267;DHT22;11802;53.160;8.214;2022-09-09T14:28:11;20.40;99.90
23267;DHT22;11802;53.160;8.214;2022-09-09T14:30:39;20.40;99.90
23267;DHT22;11802;53.160;8.214;2022-09-09T14:33:05;20.40;99.90
23267;DHT22;11802;53.160;8.214;2022-09-09T14:35:31;20.40;99.90
23267;DHT22;11802;53.160;8.214;2022-09-09T14:37:58;20.30;99.90
23267;DHT22;11802;53.160;8.214;2022-09-09T14:40:24;20.40;99.90
23267;DHT22;11802;53.160;8.214;2022-09-09T14:42:49;20.30;99.90
23267;DHT22;11802;53.160;8.214;2022-09-09T14:45:15;20.30;99.90
23267;DHT22;11802;53.160;8.214;2022-09-09T14:47:40;20.20;99.90
23267;DHT22;11802;53.160;8.214;2022-09-09T14:50:06;20.10;99.90
23267;DHT22;11802;53.160;8.214;2022-09-09T14:52:33;19.90;99.90
23267;DHT22;11802;53.160;8.214;2022-09-09T14:54:59;19.90;99.90
23267;DHT22;11802;53.160;8.214;2022-09-09T14:57:24;20.00;99.90
23267;DHT22;11802;53.160;8.214;2022-09-09T14:59:50;20.00;99.90
23267;DHT22;11802;53.160;8.214;2022-09-09T15:02:15;20.10;99.90
23267;DHT22;11802;53.160;8.214;2022-09-09T15:04:41;20.20;99.90
23267;DHT22;11802;53.160;8.214;2022-09-09T15:07:07;20.20;99.90
23267;DHT22;11802;53.160;8.214;2022-09-09T15:09:33;19.90;99.90
23267;DHT22;11802;53.160;8.214;2022-09-09T15:11:58;20.00;99.90
23267;DHT22;11802;53.160;8.214;2022-09-09T15:14:24;19.90;99.90
23267;DHT22;11802;53.160;8.214;2022-09-09T15:16:51;19.80;99.90
23267;DHT22;11802;53.160;8.214;2022-09-09T15:19:17;19.90;99.90
23267;DHT22;11802;53.160;8.214;2022-09-09T15:21:42;19.90;99.90
23267;DHT22;11802;53.160;8.214;2022-09-09T15:24:08;20.00;99.90
23267;DHT22;11802;53.160;8.214;2022-09-09T15:26:34;20.00;99.90
23267;DHT22;11802;53.160;8.214;2022-09-09T15:29:00;20.10;99.90
23267;DHT22;11802;53.160;8.214;2022-09-09T15:31:28;20.00;99.90
23267;DHT22;11802;53.160;8.214;2022-09-09T15:33:56;20.10;99.90
23267;DHT22;11802;53.160;8.214;2022-09-09T15:36:30;20.20;99.90
23267;DHT22;11802;53.160;8.214;2022-09-09T15:38:58;20.10;99.90
23267;DHT22;11802;53.160;8.214;2022-09-09T15:41:25;20.00;99.90
23267;DHT22;11802;53.160;8.214;2022-09-09T15:43:53;19.90;99.90
23267;DHT22;11802;53.160;8.214;2022-09-09T15:46:36;19.90;99.90
23267;DHT22;11802;53.160;8.214;2022-09-09T15:49:09;19.80;99.90
23267;DHT22;11802;53.160;8.214;2022-09-09T15:51:36;19.80;99.90
23267;DHT22;11802;53.160;8.214;2022-09-09T15:54:05;19.80;99.90
23267;DHT22;11802;53.160;8.214;2022-09-09T15:56:31;19.80;99.90
23267;DHT22;11802;53.160;8.214;2022-09-09T15:58:58;19.90;99.90
23267;DHT22;11802;53.160;8.214;2022-09-09T16:01:25;19.70;99.90
23267;DHT22;11802;53.160;8.214;2022-09-09T16:03:51;19.80;99.90
23267;DHT22;11802;53.160;8.214;2022-09-09T16:06:20;19.80;99.90
23267;DHT22;11802;53.160;8.214;2022-09-09T16:08:48;19.70;99.90
23267;DHT22;11802;53.160;8.214;2022-09-09T16:11:20;19.70;99.90
23267;DHT22;11802;53.160;8.214;2022-09-09T16:13:47;19.70;99.90
23267;DHT22;11802;53.160;8.214;2022-09-09T16:16:15;19.70;99.90
23267;DHT22;11802;53.160;8.214;2022-09-09T16:18:46;19.80;99.90
23267;DHT22;11802;53.160;8.214;2022-09-09T16:21:20;19.80;99.90
23267;DHT22;11802;53.160;8.214;2022-09-09T16:23:47;19.90;99.90
23267;DHT22;11802;53.160;8.214;2022-09-09T16:26:15;19.80;99.90
23267;DHT22;11802;53.160;8.214;2022-09-09T16:28:41;19.80;99.90
23267;DHT22;11802;53.160;8.214;2022-09-09T16:31:12;19.80;99.90
23267;DHT22;11802;53.160;8.214;2022-09-09T16:33:39;19.80;99.90
23267;DHT22;11802;53.160;8.214;2022-09-09T16:36:06;19.60;99.90
23267;DHT22;11802;53.160;8.214;2022-09-09T16:38:32;19.50;99.90
23267;DHT22;11802;53.160;8.214;2022-09-09T16:41:02;19.50;99.90
23267;DHT22;11802;53.160;8.214;2022-09-09T16:43:30;19.50;99.90
23267;DHT22;11802;53.160;8.214;2022-09-09T16:45:55;19.40;99.90
23267;DHT22;11802;53.160;8.214;2022-09-09T16:48:21;19.30;99.90
23267;DHT22;11802;53.160;8.214;2022-09-09T16:50:47;19.30;99.90
23267;DHT22;11802;53.160;8.214;2022-09-09T16:53:13;19.10;99.90
23267;DHT22;11802;53.160;8.214;2022-09-09T16:55:40;19.10;99.90
23267;DHT22;11802;53.160;8.214;2022-09-09T16:58:07;19.00;99.90
23267;DHT22;11802;53.160;8.214;2022-09-09T17:00:34;19.00;99.90
23267;DHT22;11802;53.160;8.214;2022-09-09T17:03:00;19.00;99.90
23267;DHT22;11802;53.160;8.214;2022-09-09T17:05:25;18.90;99.90
23267;DHT22;11802;53.160;8.214;2022-09-09T17:07:51;18.80;99.90
23267;DHT22;11802;53.160;8.214;2022-09-09T17:10:17;18.70;99.90
23267;DHT22;11802;53.160;8.214;2022-09-09T17:12:42;18.60;99.90
23267;DHT22;11802;53.160;8.214;2022-09-09T17:15:08;18.50;99.90
23267;DHT22;11802;53.160;8.214;2022-09-09T17:17:34;18.40;99.90
23267;DHT22;11802;53.160;8.214;2022-09-09T17:20:00;18.30;99.90
23267;DHT22;11802;53.160;8.214;2022-09-09T17:22:27;18.20;99.90
23267;DHT22;11802;53.160;8.214;2022-09-09T17:24:52;18.00;99.90
23267;DHT22;11802;53.160;8.214;2022-09-09T17:27:18;17.90;99.90
23267;DHT22;11802;53.160;8.214;2022-09-09T17:29:43;17.80;99.90
23267;DHT22;11802;53.160;8.214;2022-09-09T17:32:09;17.70;99.90
23267;DHT22;11802;53.160;8.214;2022-09-09T17:34:35;17.60;99.90
23267;DHT22;11802;53.160;8.214;2022-09-09T17:37:01;17.60;99.90
23267;DHT22;11802;53.160;8.214;2022-09-09T17:39:27;17.50;99.90
23267;DHT22;11802;53.160;8.214;2022-09-09T17:41:52;17.40;99.90
23267;DHT22;11802;53.160;8.214;2022-09-09T17:44:18;17.40;99.90
23267;DHT22;11802;53.160;8.214;2022-09-09T17:46:44;17.30;99.90
23267;DHT22;11802;53.160;8.214;2022-09-09T17:49:15;17.20;99.90
23267;DHT22;11802;53.160;8.214;2022-09-09T17:51:44;17.10;99.90
23267;DHT22;11802;53.160;8.214;2022-09-09T17:54:15;17.10;99.90
23267;DHT22;11802;53.160;8.214;2022-09-09T17:56:42;16.90;99.90
23267;DHT22;11802;53.160;8.214;2022-09-09T17:59:10;16.90;99.90
23267;DHT22;11802;53.160;8.214;2022-09-09T18:01:40;16.80;99.90